Ottawa / Gatineau Airport

CYND · Ontario, Canadá

Válido de 8 de diciembre de 2022 19:00 a 8 de diciembre de 2022 21:00
Hora
jueves
19:00
jueves
20:00
Código
VFR
VFR
Tiempo
Despejado
Despejado
Visibilidad
6 mi+
6 mi+
Cielo nuboso
-
-
Viento
340°
340°
340°
340°
Velocidad
5 kt
5 kt
Ráfagas
Temp/Luz

Original

TAF CYND 082341Z 0900/0902 34005KT P6SM FEW050 RMK NXT FCST BY 091400Z

TAF Ottawa / Gatineau Airport

Ottawa / Gatineau Airport es un aeropuerto mediano en Ottawa, Ontario, Canadá. El aeropuerto tiene una pista: 9/27. El código OACI del aeropuerto es CYND y el código IATA es YND.

Este informe se hizo para 8 de diciembre de 2022 18:41, hora local en Ottawa / Gatineau Airport. Válido de 8 de diciembre de 2022 19:00 a 8 de diciembre de 2022 21:00, hora local.

Pronosticos

  • Entre jueves 19:00 y 21:00

    • Viento: El viento se mueve desde la dirección 340° a una velocidad de 5 kt.
    • Visibilidad: 6 mi o más
    • Nubes: nubes escasas a 5.000 ft altitud.

Período de luz diurna

Hoy el sol sale a las 07:30 y se pone a las 16:18. Esto se aplica a Ottawa / Gatineau Airport, el período de luz diurna universal puede ser diferente. La diferencia entre la hora local y UTC es -5 hora. No hay horario de verano en este momento.

Nosotros y terceros seguimos tu comportamiento en Internet en nuestro sitio web con cookies. Si continúas, asumimos que estás de acuerdo con nuestra Política de cookies.